createdAt,value
2022-10-14T00:02:12.091Z,11.95
2022-10-14T00:05:14.934Z,12.50
2022-10-14T00:08:17.532Z,11.80
2022-10-14T00:11:25.647Z,12.35
2022-10-14T00:14:31.783Z,12.17
2022-10-14T00:17:36.628Z,12.27
2022-10-14T00:20:39.396Z,12.80
2022-10-14T00:23:42.903Z,12.07
2022-10-14T00:26:46.495Z,12.65
2022-10-14T00:29:49.082Z,12.53
2022-10-14T00:32:51.700Z,11.90
2022-10-14T00:36:05.205Z,12.50
2022-10-14T00:39:10.323Z,12.27
2022-10-14T00:42:15.405Z,12.20
2022-10-14T00:45:23.082Z,11.70
2022-10-14T00:48:26.439Z,11.95
2022-10-14T00:51:31.518Z,12.23
2022-10-14T00:54:37.909Z,12.45
2022-10-14T00:57:40.671Z,12.35
2022-10-14T01:00:45.153Z,12.10
2022-10-14T01:03:48.046Z,12.00
2022-10-14T01:07:07.879Z,11.35
2022-10-14T01:10:38.370Z,11.43
2022-10-14T01:13:48.265Z,11.52
2022-10-14T01:17:15.531Z,11.90
2022-10-14T01:20:45.396Z,11.55
2022-10-14T01:24:01.337Z,10.88
2022-10-14T01:27:11.187Z,10.90
2022-10-14T01:30:17.508Z,11.52
2022-10-14T01:33:23.833Z,11.20
2022-10-14T01:36:37.059Z,11.15
2022-10-14T01:39:46.006Z,11.45
2022-10-14T01:42:49.706Z,11.73
2022-10-14T01:45:54.475Z,12.30
2022-10-14T01:49:05.898Z,12.33
2022-10-14T01:52:21.179Z,11.50
2022-10-14T01:55:28.043Z,12.40
2022-10-14T01:58:34.571Z,11.25
2022-10-14T02:01:37.847Z,11.77
2022-10-14T02:04:41.781Z,11.43
2022-10-14T02:07:52.231Z,11.70
2022-10-14T02:11:02.354Z,11.52
2022-10-14T02:14:40.308Z,10.82
2022-10-14T02:17:54.677Z,11.32
2022-10-14T02:21:03.537Z,11.53
2022-10-14T02:24:14.821Z,11.52
2022-10-14T02:27:20.487Z,11.20
2022-10-14T02:30:24.736Z,11.07
2022-10-14T02:33:37.900Z,11.43
2022-10-14T02:36:44.702Z,11.60
2022-10-14T02:39:57.532Z,10.52
2022-10-14T02:43:02.226Z,10.73
2022-10-14T02:46:04.962Z,11.18
2022-10-14T02:49:07.861Z,10.57
2022-10-14T02:52:11.408Z,11.40
2022-10-14T02:55:16.164Z,10.68
2022-10-14T02:58:20.077Z,11.13
2022-10-14T03:01:24.492Z,10.88
2022-10-14T03:04:27.402Z,10.75
2022-10-14T03:07:30.844Z,10.60
2022-10-14T03:10:37.494Z,10.48
2022-10-14T03:13:41.423Z,10.40
2022-10-14T03:16:44.383Z,10.35
2022-10-14T03:19:51.759Z,10.23
2022-10-14T03:22:54.301Z,10.87
2022-10-14T03:25:58.225Z,10.40
2022-10-14T03:29:05.081Z,10.75
2022-10-14T03:32:29.228Z,10.60
2022-10-14T03:35:54.835Z,10.55
2022-10-14T03:39:10.592Z,10.50
2022-10-14T03:42:25.705Z,10.65
2022-10-14T03:45:28.710Z,10.02
2022-10-14T03:48:32.429Z,10.07
2022-10-14T03:51:35.335Z,9.93
2022-10-14T03:54:46.352Z,10.17
2022-10-14T03:57:51.867Z,10.00
2022-10-14T04:00:56.446Z,10.23
2022-10-14T04:04:13.114Z,9.65
2022-10-14T04:07:15.613Z,10.05
2022-10-14T04:10:29.200Z,9.73
2022-10-14T04:13:32.508Z,9.40
2022-10-14T04:16:36.002Z,9.50
2022-10-14T04:19:44.036Z,9.85
2022-10-14T04:22:49.663Z,9.77
2022-10-14T04:25:53.543Z,9.20
2022-10-14T04:28:56.291Z,9.68
2022-10-14T04:32:08.299Z,10.20
2022-10-14T04:35:11.702Z,9.40
2022-10-14T04:38:19.771Z,9.75
2022-10-14T04:41:29.336Z,9.53
2022-10-14T04:44:34.616Z,9.80
2022-10-14T04:47:42.009Z,9.80
2022-10-14T04:50:51.634Z,9.90
2022-10-14T04:54:20.087Z,9.48
2022-10-14T04:57:29.093Z,9.70
2022-10-14T05:00:31.739Z,9.57
2022-10-14T05:03:45.446Z,9.93
2022-10-14T05:06:48.045Z,9.63
2022-10-14T05:09:56.689Z,8.98
2022-10-14T05:13:12.196Z,9.23
2022-10-14T05:16:27.826Z,9.32
2022-10-14T05:19:30.907Z,9.18
2022-10-14T05:22:34.176Z,8.93
2022-10-14T05:25:36.835Z,9.57
2022-10-14T05:28:40.374Z,9.23
2022-10-14T05:31:44.568Z,9.63
2022-10-14T05:35:08.807Z,9.52
2022-10-14T05:38:19.234Z,9.15
2022-10-14T05:41:23.226Z,10.23
2022-10-14T05:44:27.082Z,9.30
2022-10-14T05:47:29.758Z,9.45
2022-10-14T05:50:38.062Z,9.77
2022-10-14T05:53:45.994Z,9.63
2022-10-14T05:56:52.690Z,9.63
2022-10-14T05:59:59.633Z,9.97
2022-10-14T06:03:08.597Z,9.95
2022-10-14T06:06:15.036Z,8.93
2022-10-14T06:09:18.701Z,9.80
2022-10-14T06:12:21.637Z,10.20
2022-10-14T06:15:25.380Z,9.60
2022-10-14T06:18:32.164Z,9.80
2022-10-14T06:21:35.038Z,9.02
2022-10-14T06:24:38.720Z,9.20
2022-10-14T06:27:41.991Z,9.10
2022-10-14T06:30:55.217Z,9.57
2022-10-14T06:34:01.804Z,9.30
2022-10-14T06:37:04.298Z,9.32
2022-10-14T06:40:07.490Z,8.88
2022-10-14T06:43:11.713Z,8.80
2022-10-14T06:46:15.229Z,9.77
2022-10-14T06:49:18.053Z,9.13
2022-10-14T06:52:20.784Z,9.15
2022-10-14T06:55:24.487Z,9.00
2022-10-14T06:58:27.466Z,9.40
2022-10-14T07:01:30.762Z,9.27
2022-10-14T07:04:35.865Z,8.93
2022-10-14T07:07:38.442Z,9.57
2022-10-14T07:10:41.050Z,8.75
2022-10-14T07:13:46.114Z,9.57
2022-10-14T07:16:48.762Z,9.03
2022-10-14T07:19:51.571Z,9.07
2022-10-14T07:22:57.078Z,8.95
2022-10-14T07:26:07.549Z,9.10
2022-10-14T07:29:10.127Z,8.70
2022-10-14T07:32:13.101Z,8.90
2022-10-14T07:35:17.501Z,9.13
2022-10-14T07:38:20.279Z,9.27
2022-10-14T07:41:24.886Z,8.90
2022-10-14T07:44:27.706Z,8.52
2022-10-14T07:47:30.556Z,9.00
2022-10-14T07:50:33.044Z,9.13
2022-10-14T07:53:36.988Z,9.50
2022-10-14T07:56:42.319Z,8.57
2022-10-14T07:59:46.923Z,8.95
2022-10-14T08:02:49.465Z,8.77
2022-10-14T08:05:59.502Z,8.55
2022-10-14T08:09:07.623Z,8.70
2022-10-14T08:12:10.514Z,8.60
2022-10-14T08:15:13.021Z,9.00
2022-10-14T08:18:17.859Z,8.53
2022-10-14T08:21:21.627Z,8.80
2022-10-14T08:24:25.708Z,8.23
2022-10-14T08:27:30.038Z,8.63
2022-10-14T08:30:32.683Z,8.63
2022-10-14T08:33:35.410Z,8.13
2022-10-14T08:36:38.992Z,8.27
2022-10-14T08:39:44.459Z,8.65
2022-10-14T08:43:19.729Z,8.98
2022-10-14T08:46:35.500Z,8.60
2022-10-14T08:50:07.681Z,8.10
2022-10-14T08:53:36.385Z,7.85
2022-10-14T08:56:40.657Z,8.90
2022-10-14T08:59:43.588Z,7.63
2022-10-14T09:02:48.390Z,8.40
2022-10-14T09:06:24.315Z,8.53
2022-10-14T09:09:45.218Z,8.07
2022-10-14T09:12:47.982Z,8.13
2022-10-14T09:15:58.969Z,8.13
2022-10-14T09:19:05.345Z,7.95
2022-10-14T09:22:16.135Z,8.30
2022-10-14T09:25:20.071Z,8.30
2022-10-14T09:28:36.779Z,9.05
2022-10-14T09:31:39.895Z,7.75
2022-10-14T09:34:51.920Z,8.60
2022-10-14T09:37:54.726Z,8.00
2022-10-14T09:40:59.759Z,7.72
2022-10-14T09:44:28.116Z,9.07
2022-10-14T09:47:35.762Z,8.05
2022-10-14T09:50:43.924Z,8.43
2022-10-14T09:54:06.743Z,8.03
2022-10-14T09:57:20.492Z,8.40
2022-10-14T10:00:33.061Z,8.95
2022-10-14T10:03:36.997Z,7.95
2022-10-14T10:06:53.335Z,8.38
2022-10-14T10:10:02.496Z,8.30
2022-10-14T10:13:42.135Z,8.60
2022-10-14T10:16:45.750Z,8.70
2022-10-14T10:19:51.776Z,8.48
2022-10-14T10:22:57.708Z,9.05
2022-10-14T10:26:22.774Z,9.00
2022-10-14T10:29:35.506Z,8.20
2022-10-14T10:33:02.006Z,9.02
2022-10-14T10:36:29.752Z,8.40
2022-10-14T10:39:42.842Z,9.07
2022-10-14T10:43:10.297Z,8.73
2022-10-14T10:46:32.951Z,8.88
2022-10-14T10:50:10.329Z,9.00
2022-10-14T10:54:03.918Z,8.13
2022-10-14T10:57:18.540Z,9.43
2022-10-14T11:04:08.568Z,8.88
2022-10-14T11:08:01.191Z,8.75
2022-10-14T11:11:41.244Z,8.32
2022-10-14T11:14:53.867Z,8.55
2022-10-14T11:18:03.283Z,8.40
2022-10-14T11:21:32.372Z,8.43
2022-10-14T11:25:13.003Z,8.63
2022-10-14T11:28:43.035Z,8.82
2022-10-14T11:32:04.368Z,8.65
2022-10-14T11:38:53.636Z,8.50
2022-10-14T11:42:30.867Z,8.40
2022-10-14T11:45:50.796Z,8.20
2022-10-14T11:48:59.911Z,8.30
2022-10-14T11:52:12.618Z,8.00
2022-10-14T11:55:20.249Z,8.60
2022-10-14T11:58:29.710Z,8.73
2022-10-14T12:01:38.143Z,8.27
2022-10-14T12:04:57.997Z,8.45
2022-10-14T12:08:16.527Z,8.50
2022-10-14T12:11:37.100Z,8.48
2022-10-14T12:14:55.423Z,8.80
2022-10-14T12:18:01.483Z,8.57
2022-10-14T12:21:35.572Z,9.07
2022-10-14T12:24:43.750Z,8.97
2022-10-14T12:27:46.771Z,9.13
2022-10-14T12:30:51.732Z,9.32
2022-10-14T12:34:15.557Z,8.82
2022-10-14T12:37:32.866Z,8.75
2022-10-14T12:40:36.885Z,9.00
2022-10-14T12:43:42.189Z,8.68
2022-10-14T12:46:46.923Z,8.98
2022-10-14T12:49:56.507Z,9.48
2022-10-14T12:53:03.846Z,9.63
2022-10-14T12:56:09.110Z,8.77
2022-10-14T12:59:30.766Z,9.10
2022-10-14T13:02:47.138Z,8.68
2022-10-14T13:05:49.897Z,8.23
2022-10-14T13:09:12.165Z,8.68
2022-10-14T13:12:21.688Z,8.47
2022-10-14T13:15:51.857Z,8.75
2022-10-14T13:19:04.465Z,8.68
2022-10-14T13:22:28.506Z,8.70
2022-10-14T13:25:36.021Z,8.60
2022-10-14T13:28:56.948Z,9.40
2022-10-14T13:32:17.212Z,8.85
2022-10-14T13:35:43.634Z,8.73
2022-10-14T13:38:55.805Z,9.00
2022-10-14T13:41:58.905Z,9.77
2022-10-14T13:45:12.780Z,9.57
2022-10-14T13:48:23.050Z,8.85
2022-10-14T13:51:36.599Z,9.60
2022-10-14T13:54:39.530Z,9.40
2022-10-14T13:58:11.635Z,10.15
2022-10-14T14:01:06.803Z,10.20
2022-10-14T14:04:22.415Z,9.80
2022-10-14T14:11:15.187Z,10.90
2022-10-14T14:14:21.615Z,9.90
2022-10-14T14:17:35.898Z,10.40
2022-10-14T14:20:38.581Z,9.73
2022-10-14T14:23:57.976Z,10.63
2022-10-14T14:27:00.993Z,9.93
2022-10-14T14:30:08.540Z,10.35
2022-10-14T14:33:13.826Z,9.20
2022-10-14T14:36:28.034Z,10.45
2022-10-14T14:39:42.509Z,10.35
2022-10-14T14:42:57.139Z,10.00
2022-10-14T14:46:06.123Z,10.27
2022-10-14T14:49:15.752Z,9.17
2022-10-14T14:52:18.949Z,9.68
2022-10-14T14:55:34.771Z,9.90
2022-10-14T14:58:43.970Z,10.48
2022-10-14T15:01:50.382Z,10.95
2022-10-14T15:05:05.363Z,10.83
2022-10-14T15:08:22.200Z,10.23
2022-10-14T15:11:26.558Z,10.18
2022-10-14T15:14:36.459Z,9.80
2022-10-14T15:17:47.113Z,10.38
2022-10-14T15:20:50.837Z,9.77
2022-10-14T15:23:53.461Z,9.98
2022-10-14T15:26:55.940Z,10.82
2022-10-14T15:30:28.218Z,10.80
2022-10-14T15:33:30.967Z,11.38
2022-10-14T15:36:34.562Z,11.00
2022-10-14T15:39:37.195Z,11.73
2022-10-14T15:42:39.915Z,11.63
2022-10-14T15:46:08.446Z,11.90
2022-10-14T15:49:31.100Z,11.30
2022-10-14T15:52:33.907Z,10.23
2022-10-14T15:55:36.623Z,10.50
2022-10-14T15:58:41.308Z,11.93
2022-10-14T16:01:45.323Z,10.95
2022-10-14T16:05:07.303Z,10.50
2022-10-14T16:08:14.780Z,9.60
2022-10-14T16:11:23.948Z,11.10
2022-10-14T16:14:27.773Z,10.75
2022-10-14T16:17:32.006Z,10.52
2022-10-14T16:20:35.649Z,10.48
2022-10-14T16:23:38.800Z,10.83
2022-10-14T16:26:42.328Z,11.02
2022-10-14T16:29:47.146Z,10.15
2022-10-14T16:32:50.410Z,10.50
2022-10-14T16:35:57.349Z,10.32
2022-10-14T16:39:01.821Z,10.90
2022-10-14T16:42:05.246Z,11.35
2022-10-14T16:45:08.278Z,11.75
2022-10-14T16:48:10.762Z,11.40
2022-10-14T16:51:13.399Z,11.80
2022-10-14T16:54:15.968Z,10.93
2022-10-14T16:57:18.500Z,10.82
2022-10-14T17:00:21.288Z,11.15
2022-10-14T17:03:23.850Z,10.98
2022-10-14T17:06:28.673Z,11.15
2022-10-14T17:09:31.177Z,10.77
2022-10-14T17:12:36.808Z,11.52
2022-10-14T17:15:39.386Z,12.13
2022-10-14T17:18:43.042Z,11.57
2022-10-14T17:21:49.391Z,11.43
2022-10-14T17:24:52.000Z,11.57
2022-10-14T17:27:54.494Z,11.30
2022-10-14T17:30:58.836Z,11.50
2022-10-14T17:34:01.590Z,11.05
2022-10-14T17:37:05.468Z,11.15
2022-10-14T17:40:08.843Z,11.07
2022-10-14T17:43:14.665Z,11.00
2022-10-14T17:46:21.361Z,11.43
2022-10-14T17:49:25.073Z,11.57
2022-10-14T17:52:27.915Z,12.00
2022-10-14T17:55:31.012Z,11.43
2022-10-14T17:58:34.207Z,11.75
2022-10-14T18:02:01.068Z,11.82
2022-10-14T18:04:59.568Z,11.43
2022-10-14T18:08:02.217Z,12.45
2022-10-14T18:11:10.884Z,12.03
2022-10-14T18:14:14.422Z,11.73
2022-10-14T18:17:17.612Z,12.73
2022-10-14T18:20:20.330Z,12.63
2022-10-14T18:23:28.083Z,13.32
2022-10-14T18:26:31.314Z,12.00
2022-10-14T18:29:33.911Z,12.88
2022-10-14T18:32:37.405Z,13.30
2022-10-14T18:35:40.120Z,12.60
2022-10-14T18:38:43.615Z,12.32
2022-10-14T18:41:46.292Z,12.60
2022-10-14T18:44:52.398Z,12.75
2022-10-14T18:47:55.242Z,14.52
2022-10-14T18:50:59.419Z,13.68
2022-10-14T18:54:08.054Z,13.98
2022-10-14T18:57:15.042Z,13.13
2022-10-14T19:00:18.307Z,12.82
2022-10-14T19:03:21.437Z,12.85
2022-10-14T19:06:24.579Z,13.05
2022-10-14T19:09:29.908Z,12.63
2022-10-14T19:12:42.323Z,12.90
2022-10-14T19:15:46.886Z,13.10
2022-10-14T19:18:56.808Z,13.95
2022-10-14T19:22:01.247Z,13.68
2022-10-14T19:25:04.126Z,13.88
2022-10-14T19:28:07.223Z,14.00
2022-10-14T19:31:15.688Z,13.45
2022-10-14T19:34:18.681Z,13.73
2022-10-14T19:37:22.344Z,13.27
2022-10-14T19:40:26.178Z,13.55
2022-10-14T19:43:29.220Z,13.23
2022-10-14T19:46:32.084Z,12.90
2022-10-14T19:49:34.914Z,13.85
2022-10-14T19:52:37.493Z,14.27
2022-10-14T19:55:40.145Z,14.48
2022-10-14T19:58:44.816Z,13.63
2022-10-14T20:01:48.130Z,13.93
2022-10-14T20:04:50.924Z,14.30
2022-10-14T20:07:54.654Z,13.73
2022-10-14T20:11:01.686Z,13.70
2022-10-14T20:14:04.303Z,14.50
2022-10-14T20:17:07.040Z,13.35
2022-10-14T20:20:09.994Z,13.85
2022-10-14T20:23:12.807Z,13.32
2022-10-14T20:26:18.720Z,13.88
2022-10-14T20:29:21.270Z,13.33
2022-10-14T20:32:23.844Z,14.00
2022-10-14T20:35:26.706Z,14.40
2022-10-14T20:38:29.717Z,15.10
2022-10-14T20:41:32.206Z,15.40
2022-10-14T20:44:35.013Z,14.20
2022-10-14T20:47:37.567Z,14.48
2022-10-14T20:50:42.680Z,14.75
2022-10-14T20:53:45.230Z,14.07
2022-10-14T20:56:49.313Z,14.40
2022-10-14T20:59:52.007Z,14.53
2022-10-14T21:02:54.667Z,14.98
2022-10-14T21:05:57.160Z,14.68
2022-10-14T21:09:00.905Z,14.93
2022-10-14T21:12:03.855Z,14.35
2022-10-14T21:15:06.825Z,14.53
2022-10-14T21:18:10.690Z,14.35
2022-10-14T21:21:16.555Z,14.40
2022-10-14T21:24:20.301Z,14.70
2022-10-14T21:27:22.977Z,14.52
2022-10-14T21:30:26.495Z,13.33
2022-10-14T21:33:28.924Z,13.40
2022-10-14T21:36:31.518Z,13.95
2022-10-14T21:39:34.112Z,13.77
2022-10-14T21:42:36.793Z,13.50
2022-10-14T21:45:39.232Z,13.40
2022-10-14T21:48:43.790Z,13.60
2022-10-14T21:51:46.342Z,13.73
2022-10-14T21:54:49.122Z,13.52
2022-10-14T21:57:52.513Z,14.35
2022-10-14T22:01:11.934Z,14.23
2022-10-14T22:04:14.527Z,13.15
2022-10-14T22:07:17.014Z,13.95
2022-10-14T22:10:39.064Z,13.57
2022-10-14T22:13:41.646Z,13.18
2022-10-14T22:16:44.902Z,12.97
2022-10-14T22:19:47.674Z,13.07
2022-10-14T22:22:50.269Z,13.25
2022-10-14T22:25:52.988Z,13.25
2022-10-14T22:29:01.708Z,12.75
2022-10-14T22:32:04.785Z,12.73
2022-10-14T22:35:08.039Z,13.77
2022-10-14T22:38:10.850Z,13.38
2022-10-14T22:41:14.919Z,14.13
2022-10-14T22:44:17.439Z,13.88
2022-10-14T22:47:20.219Z,12.80
2022-10-14T22:50:23.389Z,13.65
2022-10-14T22:53:28.169Z,13.27
2022-10-14T22:56:32.103Z,12.90
2022-10-14T22:59:34.769Z,13.30
2022-10-14T23:02:37.336Z,13.23
2022-10-14T23:05:40.007Z,13.85
2022-10-14T23:08:43.096Z,13.00
2022-10-14T23:11:45.842Z,13.20
2022-10-14T23:14:48.274Z,12.77
2022-10-14T23:17:50.773Z,13.53
2022-10-14T23:20:53.782Z,12.35
2022-10-14T23:23:58.620Z,12.95
2022-10-14T23:27:01.138Z,12.13
2022-10-14T23:30:04.925Z,13.02
2022-10-14T23:33:10.845Z,12.00
2022-10-14T23:36:14.047Z,11.65
2022-10-14T23:39:16.611Z,12.63
2022-10-14T23:42:19.472Z,12.20
2022-10-14T23:45:21.961Z,12.32
2022-10-14T23:48:24.467Z,12.67
2022-10-14T23:51:27.062Z,12.43
2022-10-14T23:54:29.719Z,12.40
2022-10-14T23:57:32.193Z,13.20
